Strensall, United Kingdom
Current Conditions -  °F | °C
As of 10:50 AM on Friday 21 Nov 2014 (Local Time) from EGXU Reporting Station
Haze Haze  
Wind Chill: 41°   Ceiling: 2800
Heat Index: 46°   Visibility: 4mi
Dew Point: 43°   Wind: 10mph
Humidity: 87%   Direction: 120°ESE
Pressure: 30.12"   Gusts: NA
Location:  54.04°N, 1.04°W
Report Text: EGXU 211050Z 12009KT 6000 HZ BKN028 08/06 Q1020 WHT NOSIG
Loading
Personal Weather Stations






























Interactive Weather Map New forecast layout! Learn more

10-Day Weather Forecast

Advertisements
Track Severe Weather on mobile